sensor_id;sensor_type;location;lat;lon;timestamp;pressure;altitude;pressure_sealevel;temperature;humidity
22550;BME280;11441;57.164;-2.120;2023-03-31T00:01:28;98855.06;;;10.11;100.00
22550;BME280;11441;57.164;-2.120;2023-03-31T00:04:12;98865.25;;;10.25;100.00
22550;BME280;11441;57.164;-2.120;2023-03-31T00:06:40;98862.13;;;10.12;100.00
22550;BME280;11441;57.164;-2.120;2023-03-31T00:09:10;98856.28;;;9.92;100.00
22550;BME280;11441;57.164;-2.120;2023-03-31T00:11:41;98855.09;;;9.86;100.00
22550;BME280;11441;57.164;-2.120;2023-03-31T00:14:08;98856.66;;;9.94;100.00
22550;BME280;11441;57.164;-2.120;2023-03-31T00:16:36;98861.78;;;9.88;100.00
22550;BME280;11441;57.164;-2.120;2023-03-31T00:19:04;98855.09;;;9.78;100.00
22550;BME280;11441;57.164;-2.120;2023-03-31T00:21:31;98852.34;;;9.78;100.00
22550;BME280;11441;57.164;-2.120;2023-03-31T00:24:06;98851.59;;;9.63;100.00
22550;BME280;11441;57.164;-2.120;2023-03-31T00:26:34;98852.38;;;9.64;100.00
22550;BME280;11441;57.164;-2.120;2023-03-31T00:29:02;98845.69;;;9.54;100.00
22550;BME280;11441;57.164;-2.120;2023-03-31T00:31:30;98841.38;;;9.60;100.00
22550;BME280;11441;57.164;-2.120;2023-03-31T00:33:57;98850.00;;;9.77;100.00
22550;BME280;11441;57.164;-2.120;2023-03-31T00:36:25;98850.00;;;9.84;100.00
22550;BME280;11441;57.164;-2.120;2023-03-31T00:38:54;98854.28;;;10.03;100.00
22550;BME280;11441;57.164;-2.120;2023-03-31T00:41:21;98847.22;;;10.06;100.00
22550;BME280;11441;57.164;-2.120;2023-03-31T00:44:14;98850.31;;;10.15;100.00
22550;BME280;11441;57.164;-2.120;2023-03-31T00:49:31;98844.91;;;9.86;100.00
22550;BME280;11441;57.164;-2.120;2023-03-31T00:54:35;98834.66;;;9.94;100.00
22550;BME280;11441;57.164;-2.120;2023-03-31T00:57:04;98830.34;;;10.00;100.00
22550;BME280;11441;57.164;-2.120;2023-03-31T00:59:36;98837.00;;;9.99;100.00
22550;BME280;11441;57.164;-2.120;2023-03-31T01:02:04;98836.63;;;9.93;100.00
22550;BME280;11441;57.164;-2.120;2023-03-31T01:04:34;98824.44;;;10.09;100.00
22550;BME280;11441;57.164;-2.120;2023-03-31T01:07:25;98835.44;;;10.05;100.00
22550;BME280;11441;57.164;-2.120;2023-03-31T01:09:57;98819.72;;;10.02;100.00
22550;BME280;11441;57.164;-2.120;2023-03-31T01:12:46;98822.81;;;10.18;100.00
22550;BME280;11441;57.164;-2.120;2023-03-31T01:15:31;98826.78;;;9.96;100.00
22550;BME280;11441;57.164;-2.120;2023-03-31T01:17:58;98825.22;;;10.02;100.00
22550;BME280;11441;57.164;-2.120;2023-03-31T01:27:18;98808.75;;;9.88;100.00
22550;BME280;11441;57.164;-2.120;2023-03-31T01:32:57;98807.13;;;10.08;100.00
22550;BME280;11441;57.164;-2.120;2023-03-31T01:47:13;98792.28;;;9.84;100.00
22550;BME280;11441;57.164;-2.120;2023-03-31T01:55:22;98788.69;;;9.91;100.00
22550;BME280;11441;57.164;-2.120;2023-03-31T01:57:58;98787.16;;;9.86;100.00
22550;BME280;11441;57.164;-2.120;2023-03-31T02:00:32;98778.56;;;9.59;100.00
22550;BME280;11441;57.164;-2.120;2023-03-31T02:03:12;98776.19;;;9.65;100.00
22550;BME280;11441;57.164;-2.120;2023-03-31T02:05:45;98775.41;;;9.68;100.00
22550;BME280;11441;57.164;-2.120;2023-03-31T02:08:36;98772.63;;;9.89;100.00
22550;BME280;11441;57.164;-2.120;2023-03-31T02:11:04;98776.94;;;9.87;100.00
22550;BME280;11441;57.164;-2.120;2023-03-31T02:13:33;98779.69;;;9.79;100.00
22550;BME280;11441;57.164;-2.120;2023-03-31T02:16:05;98773.81;;;9.81;100.00
22550;BME280;11441;57.164;-2.120;2023-03-31T02:18:36;98775.38;;;9.78;100.00
22550;BME280;11441;57.164;-2.120;2023-03-31T02:21:05;98773.44;;;9.79;100.00
22550;BME280;11441;57.164;-2.120;2023-03-31T02:23:35;98763.97;;;9.80;100.00
22550;BME280;11441;57.164;-2.120;2023-03-31T02:26:13;98772.25;;;9.66;100.00
22550;BME280;11441;57.164;-2.120;2023-03-31T02:28:41;98760.88;;;9.63;100.00
22550;BME280;11441;57.164;-2.120;2023-03-31T02:33:57;98765.25;;;9.36;100.00
22550;BME280;11441;57.164;-2.120;2023-03-31T02:36:24;98764.03;;;9.33;100.00
22550;BME280;11441;57.164;-2.120;2023-03-31T02:39:19;98761.69;;;9.46;100.00
22550;BME280;11441;57.164;-2.120;2023-03-31T02:41:47;98756.19;;;9.32;100.00
22550;BME280;11441;57.164;-2.120;2023-03-31T02:44:14;98751.13;;;9.30;100.00
22550;BME280;11441;57.164;-2.120;2023-03-31T02:46:43;98739.31;;;9.33;100.00
22550;BME280;11441;57.164;-2.120;2023-03-31T02:49:11;98744.44;;;9.28;100.00
22550;BME280;11441;57.164;-2.120;2023-03-31T03:12:07;98749.91;;;8.84;100.00
22550;BME280;11441;57.164;-2.120;2023-03-31T03:19:41;98740.88;;;8.70;100.00
22550;BME280;11441;57.164;-2.120;2023-03-31T03:22:08;98736.56;;;8.68;100.00
22550;BME280;11441;57.164;-2.120;2023-03-31T03:24:35;98739.31;;;8.72;100.00
22550;BME280;11441;57.164;-2.120;2023-03-31T03:27:01;98743.66;;;8.87;100.00
22550;BME280;11441;57.164;-2.120;2023-03-31T03:29:28;98731.06;;;8.76;100.00
22550;BME280;11441;57.164;-2.120;2023-03-31T03:32:14;98721.66;;;8.66;100.00
22550;BME280;11441;57.164;-2.120;2023-03-31T03:35:00;98709.88;;;8.65;100.00
22550;BME280;11441;57.164;-2.120;2023-03-31T03:37:28;98714.19;;;8.52;100.00
22550;BME280;11441;57.164;-2.120;2023-03-31T03:39:54;98710.59;;;8.41;100.00
22550;BME280;11441;57.164;-2.120;2023-03-31T03:42:21;98717.66;;;8.38;100.00
22550;BME280;11441;57.164;-2.120;2023-03-31T03:44:48;98713.38;;;8.52;100.00
22550;BME280;11441;57.164;-2.120;2023-03-31T03:47:15;98705.97;;;8.59;100.00
22550;BME280;11441;57.164;-2.120;2023-03-31T03:49:42;98697.75;;;8.52;100.00
22550;BME280;11441;57.164;-2.120;2023-03-31T03:52:09;98702.81;;;8.46;100.00
22550;BME280;11441;57.164;-2.120;2023-03-31T03:54:36;98698.91;;;8.55;100.00
22550;BME280;11441;57.164;-2.120;2023-03-31T03:57:02;98692.25;;;8.56;100.00
22550;BME280;11441;57.164;-2.120;2023-03-31T03:59:29;98703.59;;;8.43;100.00
22550;BME280;11441;57.164;-2.120;2023-03-31T04:01:56;98704.78;;;8.57;100.00
22550;BME280;11441;57.164;-2.120;2023-03-31T04:04:23;98707.94;;;8.55;100.00
22550;BME280;11441;57.164;-2.120;2023-03-31T04:06:50;98708.31;;;8.57;100.00
22550;BME280;11441;57.164;-2.120;2023-03-31T04:09:17;98706.75;;;8.60;100.00
22550;BME280;11441;57.164;-2.120;2023-03-31T04:11:44;98700.47;;;8.56;100.00
22550;BME280;11441;57.164;-2.120;2023-03-31T04:14:10;98697.75;;;8.66;100.00
22550;BME280;11441;57.164;-2.120;2023-03-31T04:16:37;98700.88;;;8.65;100.00
22550;BME280;11441;57.164;-2.120;2023-03-31T04:19:06;98700.09;;;8.54;100.00
22550;BME280;11441;57.164;-2.120;2023-03-31T04:21:33;98700.88;;;8.51;100.00
22550;BME280;11441;57.164;-2.120;2023-03-31T04:24:01;98700.47;;;8.56;100.00
22550;BME280;11441;57.164;-2.120;2023-03-31T04:26:34;98695.78;;;8.67;100.00
22550;BME280;11441;57.164;-2.120;2023-03-31T04:29:12;98693.41;;;8.62;100.00
22550;BME280;11441;57.164;-2.120;2023-03-31T04:31:40;98697.34;;;8.61;100.00
22550;BME280;11441;57.164;-2.120;2023-03-31T04:34:12;98695.78;;;8.56;100.00
22550;BME280;11441;57.164;-2.120;2023-03-31T04:36:44;98700.47;;;8.56;100.00
22550;BME280;11441;57.164;-2.120;2023-03-31T04:39:17;98690.66;;;8.47;100.00
22550;BME280;11441;57.164;-2.120;2023-03-31T04:41:52;98692.25;;;8.63;100.00
22550;BME280;11441;57.164;-2.120;2023-03-31T04:44:19;98699.72;;;8.66;100.00
22550;BME280;11441;57.164;-2.120;2023-03-31T04:46:46;98693.47;;;8.76;100.00
22550;BME280;11441;57.164;-2.120;2023-03-31T04:49:13;98688.75;;;8.84;100.00
22550;BME280;11441;57.164;-2.120;2023-03-31T04:51:58;98694.63;;;8.82;100.00
22550;BME280;11441;57.164;-2.120;2023-03-31T04:54:25;98690.72;;;8.83;100.00
22550;BME280;11441;57.164;-2.120;2023-03-31T04:56:51;98696.59;;;8.82;100.00
22550;BME280;11441;57.164;-2.120;2023-03-31T04:59:18;98708.34;;;8.75;100.00
22550;BME280;11441;57.164;-2.120;2023-03-31T05:01:45;98703.63;;;8.79;100.00
22550;BME280;11441;57.164;-2.120;2023-03-31T05:04:12;98706.38;;;8.76;100.00
22550;BME280;11441;57.164;-2.120;2023-03-31T05:06:56;98711.09;;;8.75;100.00
22550;BME280;11441;57.164;-2.120;2023-03-31T05:09:23;98707.56;;;8.78;100.00
22550;BME280;11441;57.164;-2.120;2023-03-31T05:11:50;98704.00;;;8.53;100.00
22550;BME280;11441;57.164;-2.120;2023-03-31T05:14:17;98702.84;;;8.79;100.00
22550;BME280;11441;57.164;-2.120;2023-03-31T05:16:44;98712.28;;;8.92;100.00
22550;BME280;11441;57.164;-2.120;2023-03-31T05:19:11;98709.50;;;8.74;100.00
22550;BME280;11441;57.164;-2.120;2023-03-31T05:21:38;98702.84;;;8.64;100.00
22550;BME280;11441;57.164;-2.120;2023-03-31T05:24:04;98702.47;;;8.77;100.00
22550;BME280;11441;57.164;-2.120;2023-03-31T05:26:31;98708.34;;;9.00;100.00
22550;BME280;11441;57.164;-2.120;2023-03-31T05:28:58;98712.28;;;8.78;100.00
22550;BME280;11441;57.164;-2.120;2023-03-31T05:31:25;98716.56;;;8.75;100.00
22550;BME280;11441;57.164;-2.120;2023-03-31T05:33:52;98718.53;;;8.85;100.00
22550;BME280;11441;57.164;-2.120;2023-03-31T05:36:19;98710.31;;;8.78;100.00
22550;BME280;11441;57.164;-2.120;2023-03-31T05:38:49;98712.66;;;8.83;100.00
22550;BME280;11441;57.164;-2.120;2023-03-31T05:41:17;98716.56;;;8.68;100.00
22550;BME280;11441;57.164;-2.120;2023-03-31T05:43:46;98718.16;;;8.76;100.00
22550;BME280;11441;57.164;-2.120;2023-03-31T05:46:13;98719.31;;;8.82;100.00
22550;BME280;11441;57.164;-2.120;2023-03-31T05:48:40;98731.88;;;8.80;100.00
22550;BME280;11441;57.164;-2.120;2023-03-31T05:51:07;98724.81;;;8.82;100.00
22550;BME280;11441;57.164;-2.120;2023-03-31T05:53:52;98732.28;;;8.82;100.00
22550;BME280;11441;57.164;-2.120;2023-03-31T05:56:19;98730.69;;;8.92;100.00
22550;BME280;11441;57.164;-2.120;2023-03-31T05:58:47;98729.53;;;8.82;100.00
22550;BME280;11441;57.164;-2.120;2023-03-31T06:01:16;98726.41;;;8.87;100.00
22550;BME280;11441;57.164;-2.120;2023-03-31T06:03:47;98731.50;;;8.96;100.00
22550;BME280;11441;57.164;-2.120;2023-03-31T06:06:14;98735.78;;;8.90;100.00
22550;BME280;11441;57.164;-2.120;2023-03-31T06:09:04;98744.06;;;9.04;100.00
22550;BME280;11441;57.164;-2.120;2023-03-31T06:11:31;98742.88;;;9.01;100.00
22550;BME280;11441;57.164;-2.120;2023-03-31T06:13:58;98747.97;;;8.96;100.00
22550;BME280;11441;57.164;-2.120;2023-03-31T06:16:43;98753.47;;;8.89;100.00
22550;BME280;11441;57.164;-2.120;2023-03-31T06:19:10;98757.38;;;8.87;100.00
22550;BME280;11441;57.164;-2.120;2023-03-31T06:21:37;98759.34;;;8.91;100.00
22550;BME280;11441;57.164;-2.120;2023-03-31T06:24:04;98753.47;;;9.10;100.00
22550;BME280;11441;57.164;-2.120;2023-03-31T06:26:31;98764.06;;;9.12;100.00
22550;BME280;11441;57.164;-2.120;2023-03-31T06:28:58;98769.94;;;9.14;100.00
22550;BME280;11441;57.164;-2.120;2023-03-31T06:31:24;98762.47;;;9.14;100.00
22550;BME280;11441;57.164;-2.120;2023-03-31T06:33:52;98769.94;;;9.10;100.00
22550;BME280;11441;57.164;-2.120;2023-03-31T06:36:37;98773.47;;;9.11;100.00
22550;BME280;11441;57.164;-2.120;2023-03-31T06:39:04;98782.50;;;9.04;100.00
22550;BME280;11441;57.164;-2.120;2023-03-31T06:41:31;98760.13;;;8.95;100.00
22550;BME280;11441;57.164;-2.120;2023-03-31T06:44:17;98775.44;;;9.06;100.00
22550;BME280;11441;57.164;-2.120;2023-03-31T06:46:44;98777.41;;;8.99;100.00
22550;BME280;11441;57.164;-2.120;2023-03-31T06:49:12;98778.94;;;8.89;100.00
22550;BME280;11441;57.164;-2.120;2023-03-31T06:51:38;98782.09;;;8.95;100.00
22550;BME280;11441;57.164;-2.120;2023-03-31T06:54:05;98793.88;;;9.02;100.00
22550;BME280;11441;57.164;-2.120;2023-03-31T06:56:32;98794.66;;;9.14;100.00
22550;BME280;11441;57.164;-2.120;2023-03-31T06:58:58;98794.28;;;9.22;100.00
22550;BME280;11441;57.164;-2.120;2023-03-31T07:01:25;98793.88;;;9.13;100.00
22550;BME280;11441;57.164;-2.120;2023-03-31T07:03:52;98804.09;;;9.09;100.00
22550;BME280;11441;57.164;-2.120;2023-03-31T07:06:19;98802.13;;;9.13;100.00
22550;BME280;11441;57.164;-2.120;2023-03-31T07:08:46;98806.44;;;9.21;100.00
22550;BME280;11441;57.164;-2.120;2023-03-31T07:11:13;98807.22;;;9.22;100.00
22550;BME280;11441;57.164;-2.120;2023-03-31T07:13:40;98809.19;;;9.25;100.00
22550;BME280;11441;57.164;-2.120;2023-03-31T07:16:07;98812.34;;;9.20;100.00
22550;BME280;11441;57.164;-2.120;2023-03-31T07:18:35;98812.72;;;9.22;100.00
22550;BME280;11441;57.164;-2.120;2023-03-31T07:21:07;98820.97;;;9.33;100.00
22550;BME280;11441;57.164;-2.120;2023-03-31T07:23:36;98819.00;;;9.15;100.00
22550;BME280;11441;57.164;-2.120;2023-03-31T07:26:03;98815.06;;;9.09;100.00
22550;BME280;11441;57.164;-2.120;2023-03-31T07:28:30;98817.00;;;9.12;100.00
22550;BME280;11441;57.164;-2.120;2023-03-31T07:30:57;98825.25;;;9.19;100.00
22550;BME280;11441;57.164;-2.120;2023-03-31T07:33:23;98830.75;;;9.19;100.00
22550;BME280;11441;57.164;-2.120;2023-03-31T07:35:50;98836.59;;;8.93;100.00
22550;BME280;11441;57.164;-2.120;2023-03-31T07:38:35;98847.22;;;9.12;100.00
22550;BME280;11441;57.164;-2.120;2023-03-31T07:41:02;98836.19;;;8.80;100.00
22550;BME280;11441;57.164;-2.120;2023-03-31T07:43:35;98841.31;;;8.92;100.00
22550;BME280;11441;57.164;-2.120;2023-03-31T07:46:02;98839.31;;;8.82;100.00
22550;BME280;11441;57.164;-2.120;2023-03-31T07:48:31;98847.22;;;8.98;100.00
22550;BME280;11441;57.164;-2.120;2023-03-31T07:51:19;98851.09;;;8.90;100.00
22550;BME280;11441;57.164;-2.120;2023-03-31T07:53:47;98851.91;;;8.94;100.00
22550;BME280;11441;57.164;-2.120;2023-03-31T07:56:23;98857.41;;;8.90;100.00
22550;BME280;11441;57.164;-2.120;2023-03-31T07:58:50;98855.41;;;8.80;100.00
22550;BME280;11441;57.164;-2.120;2023-03-31T08:01:21;98866.44;;;9.09;100.00
22550;BME280;11441;57.164;-2.120;2023-03-31T08:03:51;98857.81;;;8.96;100.00
22550;BME280;11441;57.164;-2.120;2023-03-31T08:06:21;98864.44;;;8.87;100.00
22550;BME280;11441;57.164;-2.120;2023-03-31T08:08:49;98872.69;;;8.95;100.00
22550;BME280;11441;57.164;-2.120;2023-03-31T08:11:17;98873.88;;;8.86;100.00
22550;BME280;11441;57.164;-2.120;2023-03-31T08:13:44;98874.28;;;8.99;100.00
22550;BME280;11441;57.164;-2.120;2023-03-31T08:16:11;98867.50;;;8.68;100.00
22550;BME280;11441;57.164;-2.120;2023-03-31T08:18:56;98882.41;;;8.74;100.00
22550;BME280;11441;57.164;-2.120;2023-03-31T08:21:23;98879.00;;;9.02;100.00
22550;BME280;11441;57.164;-2.120;2023-03-31T08:23:53;98880.94;;;9.02;100.00
22550;BME280;11441;57.164;-2.120;2023-03-31T08:26:20;98883.28;;;9.00;100.00
22550;BME280;11441;57.164;-2.120;2023-03-31T08:28:47;98895.41;;;8.88;100.00
22550;BME280;11441;57.164;-2.120;2023-03-31T08:31:16;98889.59;;;9.04;100.00
22550;BME280;11441;57.164;-2.120;2023-03-31T08:33:45;98888.75;;;8.89;100.00
22550;BME280;11441;57.164;-2.120;2023-03-31T08:36:12;98890.34;;;8.94;100.00
22550;BME280;11441;57.164;-2.120;2023-03-31T08:38:41;98891.91;;;8.91;100.00
22550;BME280;11441;57.164;-2.120;2023-03-31T08:44:00;98883.59;;;8.70;100.00
22550;BME280;11441;57.164;-2.120;2023-03-31T08:46:29;98901.31;;;8.86;100.00
22550;BME280;11441;57.164;-2.120;2023-03-31T08:48:59;98904.91;;;9.09;100.00
22550;BME280;11441;57.164;-2.120;2023-03-31T08:51:38;98904.09;;;8.94;100.00
22550;BME280;11441;57.164;-2.120;2023-03-31T08:54:18;98902.09;;;8.91;100.00
22550;BME280;11441;57.164;-2.120;2023-03-31T08:57:09;98902.16;;;9.09;100.00
22550;BME280;11441;57.164;-2.120;2023-03-31T08:59:56;98892.69;;;8.92;100.00
22550;BME280;11441;57.164;-2.120;2023-03-31T09:02:55;98904.09;;;8.94;100.00
22550;BME280;11441;57.164;-2.120;2023-03-31T09:10:58;98916.25;;;8.96;100.00
22550;BME280;11441;57.164;-2.120;2023-03-31T09:19:35;98923.22;;;8.83;100.00
22550;BME280;11441;57.164;-2.120;2023-03-31T09:22:07;98924.03;;;8.80;100.00
22550;BME280;11441;57.164;-2.120;2023-03-31T09:24:48;98930.31;;;8.87;100.00
22550;BME280;11441;57.164;-2.120;2023-03-31T09:27:18;98924.84;;;8.95;100.00
22550;BME280;11441;57.164;-2.120;2023-03-31T09:29:47;98933.91;;;8.99;100.00
22550;BME280;11441;57.164;-2.120;2023-03-31T09:32:20;98941.22;;;8.66;100.00
22550;BME280;11441;57.164;-2.120;2023-03-31T09:34:54;98946.81;;;8.95;100.00
22550;BME280;11441;57.164;-2.120;2023-03-31T09:37:28;98942.53;;;9.01;100.00
22550;BME280;11441;57.164;-2.120;2023-03-31T09:39:59;98954.97;;;8.73;100.00
22550;BME280;11441;57.164;-2.120;2023-03-31T09:42:26;98952.22;;;8.73;100.00
22550;BME280;11441;57.164;-2.120;2023-03-31T09:44:53;98957.34;;;8.78;100.00
22550;BME280;11441;57.164;-2.120;2023-03-31T09:47:41;98948.28;;;8.74;100.00
22550;BME280;11441;57.164;-2.120;2023-03-31T09:50:10;98956.56;;;8.78;100.00
22550;BME280;11441;57.164;-2.120;2023-03-31T09:52:40;98956.91;;;8.69;100.00
22550;BME280;11441;57.164;-2.120;2023-03-31T09:58:06;98972.38;;;9.02;100.00
22550;BME280;11441;57.164;-2.120;2023-03-31T10:00:33;98972.28;;;8.88;100.00
22550;BME280;11441;57.164;-2.120;2023-03-31T10:03:02;98977.38;;;8.86;100.00
22550;BME280;11441;57.164;-2.120;2023-03-31T10:05:35;98980.84;;;8.76;100.00
22550;BME280;11441;57.164;-2.120;2023-03-31T10:08:29;98978.97;;;8.91;100.00
22550;BME280;11441;57.164;-2.120;2023-03-31T10:11:07;98978.22;;;8.97;100.00
22550;BME280;11441;57.164;-2.120;2023-03-31T10:16:56;98988.78;;;8.92;100.00
22550;BME280;11441;57.164;-2.120;2023-03-31T10:19:26;98998.25;;;9.05;100.00
22550;BME280;11441;57.164;-2.120;2023-03-31T10:24:23;99004.97;;;9.11;100.00
22550;BME280;11441;57.164;-2.120;2023-03-31T10:26:53;99004.09;;;8.93;100.00
22550;BME280;11441;57.164;-2.120;2023-03-31T10:29:28;99012.00;;;9.05;100.00
22550;BME280;11441;57.164;-2.120;2023-03-31T10:32:02;99009.22;;;9.01;100.00
22550;BME280;11441;57.164;-2.120;2023-03-31T10:34:29;99022.13;;;8.90;100.00
22550;BME280;11441;57.164;-2.120;2023-03-31T10:36:57;99019.44;;;9.01;100.00
22550;BME280;11441;57.164;-2.120;2023-03-31T10:39:29;99030.78;;;8.96;100.00
22550;BME280;11441;57.164;-2.120;2023-03-31T10:42:20;99033.22;;;9.12;100.00
22550;BME280;11441;57.164;-2.120;2023-03-31T10:44:48;99025.72;;;9.05;100.00
22550;BME280;11441;57.164;-2.120;2023-03-31T10:47:20;99037.47;;;9.05;100.00
22550;BME280;11441;57.164;-2.120;2023-03-31T10:49:55;99036.31;;;9.06;100.00
22550;BME280;11441;57.164;-2.120;2023-03-31T10:52:25;99041.06;;;9.17;100.00
22550;BME280;11441;57.164;-2.120;2023-03-31T10:54:58;99033.16;;;9.01;100.00
22550;BME280;11441;57.164;-2.120;2023-03-31T10:57:57;99054.44;;;9.22;100.00
22550;BME280;11441;57.164;-2.120;2023-03-31T11:01:10;99049.31;;;9.17;100.00
22550;BME280;11441;57.164;-2.120;2023-03-31T11:03:59;99058.31;;;9.14;100.00
22550;BME280;11441;57.164;-2.120;2023-03-31T11:07:31;99055.59;;;9.21;100.00
22550;BME280;11441;57.164;-2.120;2023-03-31T11:09:52;99063.88;;;9.32;100.00
22550;BME280;11441;57.164;-2.120;2023-03-31T11:12:35;99068.56;;;9.24;100.00
22550;BME280;11441;57.164;-2.120;2023-03-31T11:15:20;99059.16;;;9.21;100.00
22550;BME280;11441;57.164;-2.120;2023-03-31T11:23:19;99081.50;;;9.20;100.00
22550;BME280;11441;57.164;-2.120;2023-03-31T11:26:00;99075.16;;;9.09;100.00
22550;BME280;11441;57.164;-2.120;2023-03-31T11:43:11;99105.91;;;9.36;100.00
22550;BME280;11441;57.164;-2.120;2023-03-31T11:46:18;99101.56;;;9.31;100.00
22550;BME280;11441;57.164;-2.120;2023-03-31T11:48:57;99103.16;;;9.32;100.00
22550;BME280;11441;57.164;-2.120;2023-03-31T11:51:28;99116.44;;;9.23;100.00
22550;BME280;11441;57.164;-2.120;2023-03-31T11:53:58;99113.94;;;8.96;100.00
22550;BME280;11441;57.164;-2.120;2023-03-31T11:56:34;99125.88;;;9.22;100.00
22550;BME280;11441;57.164;-2.120;2023-03-31T11:59:02;99117.16;;;9.09;100.00
22550;BME280;11441;57.164;-2.120;2023-03-31T12:06:40;99131.31;;;9.11;100.00
22550;BME280;11441;57.164;-2.120;2023-03-31T12:11:55;99139.97;;;9.17;100.00
22550;BME280;11441;57.164;-2.120;2023-03-31T12:14:39;99142.72;;;9.20;100.00
22550;BME280;11441;57.164;-2.120;2023-03-31T12:17:11;99140.78;;;9.24;100.00
22550;BME280;11441;57.164;-2.120;2023-03-31T12:19:51;99146.66;;;9.23;100.00
22550;BME280;11441;57.164;-2.120;2023-03-31T12:22:35;99143.44;;;9.10;100.00
22550;BME280;11441;57.164;-2.120;2023-03-31T12:25:04;99158.22;;;8.91;100.00
22550;BME280;11441;57.164;-2.120;2023-03-31T12:27:43;99163.97;;;8.75;100.00
22550;BME280;11441;57.164;-2.120;2023-03-31T12:30:33;99158.97;;;8.88;100.00
22550;BME280;11441;57.164;-2.120;2023-03-31T12:33:27;99157.19;;;9.14;100.00
22550;BME280;11441;57.164;-2.120;2023-03-31T12:36:16;99158.28;;;8.98;100.00
22550;BME280;11441;57.164;-2.120;2023-03-31T12:47:18;99177.72;;;8.75;100.00
22550;BME280;11441;57.164;-2.120;2023-03-31T12:49:54;99177.63;;;8.64;100.00
22550;BME280;11441;57.164;-2.120;2023-03-31T13:08:59;99205.72;;;8.95;100.00
22550;BME280;11441;57.164;-2.120;2023-03-31T13:14:00;99208.59;;;8.65;100.00
22550;BME280;11441;57.164;-2.120;2023-03-31T13:16:32;99207.94;;;8.79;100.00
22550;BME280;11441;57.164;-2.120;2023-03-31T13:19:02;99211.88;;;8.78;100.00
22550;BME280;11441;57.164;-2.120;2023-03-31T13:21:29;99214.28;;;8.86;100.00
22550;BME280;11441;57.164;-2.120;2023-03-31T13:24:00;99217.28;;;8.74;100.00
22550;BME280;11441;57.164;-2.120;2023-03-31T13:26:36;99221.94;;;8.66;100.00
22550;BME280;11441;57.164;-2.120;2023-03-31T13:29:10;99226.19;;;8.60;100.00
22550;BME280;11441;57.164;-2.120;2023-03-31T13:32:17;99224.94;;;8.51;100.00
22550;BME280;11441;57.164;-2.120;2023-03-31T13:35:04;99228.06;;;8.53;100.00
22550;BME280;11441;57.164;-2.120;2023-03-31T13:37:44;99223.03;;;8.58;100.00
22550;BME280;11441;57.164;-2.120;2023-03-31T13:43:19;99225.59;;;8.78;100.00
22550;BME280;11441;57.164;-2.120;2023-03-31T13:49:23;99235.78;;;8.40;100.00
22550;BME280;11441;57.164;-2.120;2023-03-31T13:51:58;99234.41;;;8.60;100.00
22550;BME280;11441;57.164;-2.120;2023-03-31T14:00:33;99241.97;;;8.71;100.00
22550;BME280;11441;57.164;-2.120;2023-03-31T14:03:12;99251.13;;;8.44;100.00
22550;BME280;11441;57.164;-2.120;2023-03-31T14:06:00;99251.47;;;8.43;100.00
22550;BME280;11441;57.164;-2.120;2023-03-31T14:11:23;99255.81;;;8.44;100.00
22550;BME280;11441;57.164;-2.120;2023-03-31T14:16:43;99255.03;;;8.43;100.00
22550;BME280;11441;57.164;-2.120;2023-03-31T14:20:12;99274.75;;;8.22;100.00
22550;BME280;11441;57.164;-2.120;2023-03-31T14:22:28;99271.34;;;8.33;100.00
22550;BME280;11441;57.164;-2.120;2023-03-31T14:25:10;99274.97;;;8.40;100.00
22550;BME280;11441;57.164;-2.120;2023-03-31T14:39:42;99296.13;;;8.40;100.00
22550;BME280;11441;57.164;-2.120;2023-03-31T14:42:15;99293.38;;;8.40;100.00
22550;BME280;11441;57.164;-2.120;2023-03-31T14:44:43;99295.09;;;8.52;100.00
22550;BME280;11441;57.164;-2.120;2023-03-31T14:47:32;99298.75;;;8.63;100.00
22550;BME280;11441;57.164;-2.120;2023-03-31T14:50:33;99304.09;;;8.48;100.00
22550;BME280;11441;57.164;-2.120;2023-03-31T14:52:52;99304.06;;;8.45;100.00
22550;BME280;11441;57.164;-2.120;2023-03-31T14:55:22;99304.97;;;8.26;100.00
22550;BME280;11441;57.164;-2.120;2023-03-31T14:58:01;99308.72;;;8.44;100.00
22550;BME280;11441;57.164;-2.120;2023-03-31T15:00:31;99310.78;;;8.51;100.00
22550;BME280;11441;57.164;-2.120;2023-03-31T15:02:59;99315.47;;;8.51;100.00
22550;BME280;11441;57.164;-2.120;2023-03-31T15:05:30;99323.47;;;8.33;100.00
22550;BME280;11441;57.164;-2.120;2023-03-31T15:07:58;99318.81;;;8.37;100.00
22550;BME280;11441;57.164;-2.120;2023-03-31T15:10:34;99328.69;;;8.41;100.00
22550;BME280;11441;57.164;-2.120;2023-03-31T15:13:24;99334.81;;;8.31;100.00
22550;BME280;11441;57.164;-2.120;2023-03-31T15:15:52;99330.06;;;8.28;100.00
22550;BME280;11441;57.164;-2.120;2023-03-31T15:18:19;99333.88;;;8.46;100.00
22550;BME280;11441;57.164;-2.120;2023-03-31T15:20:46;99338.44;;;8.39;100.00
22550;BME280;11441;57.164;-2.120;2023-03-31T15:23:23;99344.56;;;8.28;100.00
22550;BME280;11441;57.164;-2.120;2023-03-31T15:25:56;99342.28;;;8.34;100.00
22550;BME280;11441;57.164;-2.120;2023-03-31T15:28:25;99340.63;;;8.26;100.00
22550;BME280;11441;57.164;-2.120;2023-03-31T15:30:55;99351.22;;;8.27;100.00
22550;BME280;11441;57.164;-2.120;2023-03-31T15:33:42;99360.69;;;8.34;100.00
22550;BME280;11441;57.164;-2.120;2023-03-31T15:36:10;99352.38;;;8.26;100.00
22550;BME280;11441;57.164;-2.120;2023-03-31T15:38:38;99356.19;;;8.45;100.00
22550;BME280;11441;57.164;-2.120;2023-03-31T15:41:13;99365.69;;;8.24;100.00
22550;BME280;11441;57.164;-2.120;2023-03-31T15:46:19;99362.13;;;8.51;100.00
22550;BME280;11441;57.164;-2.120;2023-03-31T15:48:54;99363.22;;;8.76;100.00
22550;BME280;11441;57.164;-2.120;2023-03-31T15:51:35;99370.19;;;8.70;100.00
22550;BME280;11441;57.164;-2.120;2023-03-31T15:54:30;99370.28;;;8.43;100.00
22550;BME280;11441;57.164;-2.120;2023-03-31T15:57:00;99374.16;;;8.42;100.00
22550;BME280;11441;57.164;-2.120;2023-03-31T15:59:30;99372.41;;;8.30;100.00
22550;BME280;11441;57.164;-2.120;2023-03-31T16:02:39;99363.63;;;8.18;100.00
22550;BME280;11441;57.164;-2.120;2023-03-31T16:05:27;99376.03;;;7.81;100.00
22550;BME280;11441;57.164;-2.120;2023-03-31T16:08:16;99375.28;;;8.11;100.00
22550;BME280;11441;57.164;-2.120;2023-03-31T16:10:47;99387.03;;;7.85;100.00
22550;BME280;11441;57.164;-2.120;2023-03-31T16:13:19;99379.56;;;8.08;100.00